createdAt,value
2024-04-06T00:01:05.350Z,32.50
2024-04-06T00:06:24.492Z,32.44
2024-04-06T00:11:27.890Z,32.46
2024-04-06T00:16:30.910Z,32.53
2024-04-06T00:21:33.961Z,32.43
2024-04-06T00:26:40.404Z,32.50
2024-04-06T00:32:15.986Z,32.47
2024-04-06T00:37:51.940Z,32.51
2024-04-06T00:42:55.189Z,32.54
2024-04-06T00:48:30.135Z,32.56
2024-04-06T00:53:40.943Z,32.53
2024-04-06T00:59:16.573Z,32.54
2024-04-06T01:04:33.058Z,32.54
2024-04-06T01:09:36.093Z,32.54
2024-04-06T01:14:46.075Z,32.58
2024-04-06T01:20:21.437Z,32.57
2024-04-06T01:25:24.492Z,32.59
2024-04-06T01:30:27.572Z,32.55
2024-04-06T01:35:30.964Z,32.61
2024-04-06T01:40:33.974Z,32.57
2024-04-06T01:45:37.006Z,32.67
2024-04-06T01:50:41.003Z,32.61
2024-04-06T01:55:47.599Z,32.60
2024-04-06T02:00:57.153Z,32.59
2024-04-06T02:06:03.540Z,32.59
2024-04-06T02:11:19.784Z,32.68
2024-04-06T02:16:24.343Z,32.67
2024-04-06T02:27:45.968Z,32.77
2024-04-06T02:32:49.788Z,32.72
2024-04-06T02:37:52.841Z,32.68
2024-04-06T02:43:28.170Z,32.75
2024-04-06T02:48:34.975Z,32.69
2024-04-06T02:54:10.074Z,32.71
2024-04-06T02:59:14.813Z,32.74
2024-04-06T03:04:49.434Z,32.77
2024-04-06T03:10:56.980Z,32.80
2024-04-06T03:16:32.248Z,32.67
2024-04-06T03:21:35.419Z,32.64
2024-04-06T03:27:10.677Z,32.83
2024-04-06T03:32:23.158Z,32.77
2024-04-06T03:37:58.411Z,32.75
2024-04-06T03:43:01.544Z,32.81
2024-04-06T03:48:15.123Z,32.81
2024-04-06T03:53:42.351Z,32.77
2024-04-06T03:59:17.752Z,32.79
2024-04-06T04:04:22.084Z,32.76
2024-04-06T04:09:58.783Z,32.75
2024-04-06T04:15:11.029Z,32.84
2024-04-06T04:20:24.559Z,32.83
2024-04-06T04:25:59.882Z,32.80
2024-04-06T04:31:13.853Z,32.79
2024-04-06T04:36:17.000Z,32.81
2024-04-06T04:41:19.978Z,32.63
2024-04-06T04:46:23.302Z,32.77
2024-04-06T04:51:34.477Z,32.72
2024-04-06T04:57:09.610Z,32.73
2024-04-06T05:02:25.910Z,32.73
2024-04-06T05:07:46.560Z,32.75
2024-04-06T05:13:21.995Z,32.63
2024-04-06T05:18:29.745Z,32.66
2024-04-06T05:24:05.994Z,32.67
2024-04-06T05:29:15.487Z,32.52
2024-04-06T05:34:50.989Z,32.52
2024-04-06T05:39:56.341Z,32.54
2024-04-06T05:45:30.979Z,32.61
2024-04-06T05:50:47.439Z,32.63
2024-04-06T05:55:59.656Z,32.55
2024-04-06T06:01:11.666Z,32.68
2024-04-06T06:06:54.080Z,32.57
2024-04-06T06:12:03.970Z,32.66
2024-04-06T06:17:39.213Z,32.64
2024-04-06T06:22:42.275Z,32.55
2024-04-06T06:27:47.406Z,32.64
2024-04-06T06:32:51.507Z,32.60
2024-04-06T06:38:27.849Z,32.54
2024-04-06T06:43:34.634Z,32.52
2024-04-06T06:49:11.605Z,32.67
2024-04-06T06:54:19.408Z,32.51
2024-04-06T07:05:15.783Z,32.48
2024-04-06T07:10:51.343Z,32.53
2024-04-06T07:16:29.925Z,32.57
2024-04-06T07:21:39.113Z,32.53
2024-04-06T07:26:56.909Z,32.51
2024-04-06T07:32:02.264Z,32.45
2024-04-06T07:37:43.345Z,32.53
2024-04-06T07:42:55.128Z,32.31
2024-04-06T07:48:30.409Z,32.39
2024-04-06T07:53:40.887Z,32.22
2024-04-06T07:59:16.293Z,32.19
2024-04-06T08:04:19.293Z,32.16
2024-04-06T08:09:32.872Z,32.08
2024-04-06T08:15:40.329Z,31.96
2024-04-06T08:20:50.326Z,32.03
2024-04-06T08:25:54.830Z,31.96
2024-04-06T08:31:30.715Z,31.97
2024-04-06T08:36:33.786Z,31.88
2024-04-06T08:42:08.723Z,31.75
2024-04-06T08:47:14.787Z,31.82
2024-04-06T08:52:38.410Z,31.75
2024-04-06T08:58:14.619Z,31.89
2024-04-06T09:03:18.430Z,31.79
2024-04-06T09:08:53.509Z,31.76
2024-04-06T09:14:03.664Z,31.70
2024-04-06T09:19:38.688Z,31.62
2024-04-06T09:24:49.069Z,31.61
2024-04-06T09:30:26.252Z,31.52
2024-04-06T09:35:31.186Z,31.45
2024-04-06T09:40:56.211Z,31.59
2024-04-06T09:46:32.063Z,31.47
2024-04-06T09:51:35.092Z,31.53
2024-04-06T09:56:38.181Z,31.32
2024-04-06T10:01:46.099Z,31.29
2024-04-06T10:06:56.377Z,31.09
2024-04-06T10:12:04.458Z,30.96
2024-04-06T10:17:09.164Z,30.98
2024-04-06T10:22:44.618Z,30.85
2024-04-06T10:28:07.967Z,30.70
2024-04-06T10:33:11.017Z,30.70
2024-04-06T10:38:14.066Z,30.73
2024-04-06T10:43:17.265Z,30.67
2024-04-06T10:48:52.037Z,30.54
2024-04-06T10:54:03.849Z,30.53
2024-04-06T10:59:39.899Z,30.43
2024-04-06T11:04:49.545Z,30.24
2024-04-06T11:09:54.634Z,30.23
2024-04-06T11:15:01.842Z,30.40
2024-04-06T11:20:22.011Z,30.31
2024-04-06T11:25:31.079Z,30.23
2024-04-06T11:30:34.092Z,30.42
2024-04-06T11:35:43.576Z,30.41
2024-04-06T11:41:00.020Z,30.35
2024-04-06T11:46:10.058Z,30.59
2024-04-06T11:51:52.968Z,30.57
2024-04-06T11:57:08.388Z,30.51
2024-04-06T12:02:45.253Z,30.58
2024-04-06T12:08:20.214Z,30.68
2024-04-06T12:13:26.739Z,30.63
2024-04-06T12:19:02.383Z,30.68
2024-04-06T12:24:06.957Z,30.77
2024-04-06T12:29:42.445Z,30.86
2024-04-06T12:34:48.845Z,30.88
2024-04-06T12:40:25.750Z,30.94
2024-04-06T12:46:32.370Z,30.98
2024-04-06T12:51:38.874Z,31.01
2024-04-06T12:57:37.644Z,31.12
2024-04-06T13:02:49.345Z,31.03
2024-04-06T13:07:53.730Z,30.98
2024-04-06T13:12:58.102Z,31.08
2024-04-06T13:18:01.185Z,31.07
2024-04-06T13:23:04.436Z,31.07
2024-04-06T13:28:07.436Z,31.09
2024-04-06T13:33:10.556Z,30.98
2024-04-06T13:38:13.635Z,31.00
2024-04-06T13:43:16.887Z,31.18
2024-04-06T13:48:19.943Z,31.10
2024-04-06T13:53:23.200Z,31.24
2024-04-06T13:58:26.310Z,31.31
2024-04-06T14:03:29.495Z,31.24
2024-04-06T14:08:33.219Z,31.30
2024-04-06T14:13:36.373Z,31.40
2024-04-06T14:18:39.406Z,31.40
2024-04-06T14:23:42.636Z,31.61
2024-04-06T14:28:45.784Z,31.55
2024-04-06T14:33:48.931Z,31.56
2024-04-06T14:38:51.940Z,31.58
2024-04-06T14:43:55.187Z,31.68
2024-04-06T14:48:58.312Z,31.75
2024-04-06T14:54:02.313Z,31.72
2024-04-06T14:59:05.446Z,31.82
2024-04-06T15:04:08.515Z,31.93
2024-04-06T15:09:11.529Z,31.95
2024-04-06T15:14:14.554Z,31.97
2024-04-06T15:19:17.580Z,31.90
2024-04-06T15:24:21.076Z,32.05
2024-04-06T15:29:24.183Z,32.03
2024-04-06T15:34:27.357Z,32.09
2024-04-06T15:39:30.439Z,32.15
2024-04-06T15:44:33.493Z,32.22
2024-04-06T15:49:36.703Z,32.24
2024-04-06T15:54:40.309Z,32.29
2024-04-06T15:59:43.394Z,32.36
2024-04-06T16:04:46.590Z,32.42
2024-04-06T16:09:49.603Z,32.47
2024-04-06T16:14:52.679Z,32.48
2024-04-06T16:19:56.013Z,32.50
2024-04-06T16:24:59.179Z,32.58
2024-04-06T16:30:02.246Z,32.53
2024-04-06T16:35:05.703Z,32.56
2024-04-06T16:40:09.175Z,32.50
2024-04-06T16:45:12.229Z,32.64
2024-04-06T16:50:15.211Z,32.75
2024-04-06T16:55:18.395Z,32.69
2024-04-06T17:00:21.545Z,32.79
2024-04-06T17:05:24.552Z,32.94
2024-04-06T17:10:27.655Z,32.75
2024-04-06T17:15:32.616Z,32.89
2024-04-06T17:20:36.004Z,32.84
2024-04-06T17:25:39.564Z,32.79
2024-04-06T17:30:43.219Z,32.95
2024-04-06T17:35:46.265Z,32.94
2024-04-06T17:40:50.125Z,33.04
2024-04-06T17:45:54.488Z,33.01
2024-04-06T17:50:58.014Z,33.30
2024-04-06T17:56:01.201Z,33.07
2024-04-06T18:01:04.694Z,33.36
2024-04-06T18:06:08.161Z,33.17
2024-04-06T18:11:12.587Z,33.25
2024-04-06T18:16:19.738Z,33.36
2024-04-06T18:21:22.875Z,33.28
2024-04-06T18:26:26.048Z,33.30
2024-04-06T18:31:29.061Z,33.15
2024-04-06T18:36:32.386Z,33.24
2024-04-06T18:41:37.674Z,33.29
2024-04-06T18:46:40.772Z,33.35
2024-04-06T18:51:45.923Z,33.29
2024-04-06T18:56:49.083Z,33.24
2024-04-06T19:01:52.135Z,33.18
2024-04-06T19:06:56.011Z,33.32
2024-04-06T19:11:59.014Z,33.22
2024-04-06T19:17:02.039Z,33.28
2024-04-06T19:22:05.093Z,33.32
2024-04-06T19:27:08.645Z,33.33
2024-04-06T19:32:11.656Z,33.37
2024-04-06T19:37:14.672Z,33.43
2024-04-06T19:42:19.601Z,33.41
2024-04-06T19:47:22.717Z,33.37
2024-04-06T19:52:25.762Z,33.50
2024-04-06T19:57:28.929Z,33.38
2024-04-06T20:02:31.996Z,33.49
2024-04-06T20:07:35.933Z,33.55
2024-04-06T20:12:39.015Z,33.52
2024-04-06T20:17:42.071Z,33.45
2024-04-06T20:23:03.819Z,33.58
2024-04-06T20:28:06.995Z,33.57
2024-04-06T20:33:10.008Z,33.62
2024-04-06T20:38:13.028Z,33.58
2024-04-06T20:43:16.122Z,33.65
2024-04-06T20:48:19.766Z,33.64
2024-04-06T20:53:22.803Z,33.57
2024-04-06T20:58:25.993Z,33.55
2024-04-06T21:03:29.093Z,33.74
2024-04-06T21:08:32.228Z,33.60
2024-04-06T21:13:35.294Z,33.71
2024-04-06T21:18:38.350Z,33.65
2024-04-06T21:23:42.471Z,33.69
2024-04-06T21:28:45.631Z,33.68
2024-04-06T21:33:48.647Z,33.66
2024-04-06T21:38:51.746Z,33.73
2024-04-06T21:43:54.728Z,33.65
2024-04-06T21:48:58.149Z,33.69
2024-04-06T21:54:01.200Z,33.73
2024-04-06T21:59:04.434Z,33.71
2024-04-06T22:04:07.514Z,33.72
2024-04-06T22:09:10.675Z,33.88
2024-04-06T22:14:14.318Z,33.89
2024-04-06T22:19:19.567Z,33.96
2024-04-06T22:24:23.198Z,34.11
2024-04-06T22:29:26.323Z,34.08
2024-04-06T22:34:29.346Z,34.10
2024-04-06T22:39:32.393Z,33.96
2024-04-06T22:44:35.466Z,34.00
2024-04-06T22:49:38.511Z,33.90
2024-04-06T22:54:41.595Z,33.95
2024-04-06T22:59:47.985Z,33.86
2024-04-06T23:04:51.011Z,33.95
2024-04-06T23:09:54.113Z,33.91
2024-04-06T23:14:57.182Z,33.94
2024-04-06T23:20:00.263Z,33.94
2024-04-06T23:25:04.047Z,34.01
2024-04-06T23:30:08.484Z,33.92
2024-04-06T23:35:11.540Z,33.88
2024-04-06T23:40:14.618Z,33.98
2024-04-06T23:45:17.649Z,34.01
2024-04-06T23:50:20.739Z,34.00
2024-04-06T23:55:23.786Z,33.96
